Terminal Aerodrome Forecast
Issued by NWS

Home | Current Version | Previous Version | Graphics & Text | Print | Product List | Glossary Off
Versions: 1 2 3 4 5 6 7 8 9 10 11 12 13 14 15

000
FTUS43 KDDC 231137
TAFGCK
TAF
KGCK 231137Z 2312/2412 01006KT P6SM FEW200
     FM231500 05010G18KT P6SM FEW250
     FM240100 09008KT P6SM SKC
     FM240700 14005KT P6SM SKC=

USA.gov is the U.S. government's official web portal to all federal, state and local government web resources and services.